Time;durP1;ratioP1;P1;durP2;ratioP2;P2;SDS_P1;SDS_P2;PMS_P1;PMS_P2;Temp;Humidity;BMP_temperature;BMP_pressure;BME280_temperature;BME280_humidity;BME280_pressure;Samples;Min_cycle;Max_cycle;Signal;HPM_P1;HPM_P2
2022/01/13 00:01:41;;;;;;;48.22;15.20;;;8.10;99.90;;;;;;5053655;28;20131;-76
2022/01/13 00:04:09;;;;;;;63.40;16.60;;;8.10;99.90;;;;;;5040932;28;20105;-76
2022/01/13 00:06:35;;;;;;;62.55;16.63;;;8.10;99.90;;;;;;5023672;28;20092;-76
2022/01/13 00:09:01;;;;;;;51.80;15.93;;;8.10;99.90;;;;;;5062500;28;20076;-76
2022/01/13 00:11:26;;;;;;;56.40;15.98;;;8.00;99.90;;;;;;5053433;28;20076;-76
2022/01/13 00:14:10;;;;;;;62.05;17.50;;;8.10;99.90;;;;;;5056967;28;20044;-76
2022/01/13 00:22:03;;;;;;;64.88;16.75;;;8.00;99.90;;;;;;5011453;28;20094;-75
2022/01/13 00:24:29;;;;;;;62.45;16.80;;;8.00;99.90;;;;;;5054302;28;20041;-76
2022/01/13 00:26:55;;;;;;;63.65;16.55;;;8.10;99.90;;;;;;5050047;28;20052;-76
2022/01/13 00:29:29;;;;;;;62.88;16.40;;;7.90;99.90;;;;;;5042681;28;20106;-76
2022/01/13 00:31:54;;;;;;;60.63;16.55;;;8.10;99.90;;;;;;5042595;28;20048;-75
2022/01/13 00:34:20;;;;;;;49.30;12.48;;;7.90;99.90;;;;;;5044960;28;20040;-75
2022/01/13 00:36:46;;;;;;;59.55;14.52;;;7.80;99.90;;;;;;5025971;28;20053;-76
2022/01/13 00:39:14;;;;;;;60.40;14.95;;;7.80;99.90;;;;;;5048041;28;20124;-76
2022/01/13 00:41:40;;;;;;;66.07;15.60;;;7.80;99.90;;;;;;5042760;28;20049;-76
2022/01/13 00:44:08;;;;;;;63.72;16.00;;;7.80;99.90;;;;;;5045917;28;20048;-75
2022/01/13 00:46:43;;;;;;;71.13;17.33;;;7.80;99.90;;;;;;5049428;28;20099;-75
2022/01/13 00:49:10;;;;;;;65.35;15.30;;;7.90;99.90;;;;;;5062632;28;20440;-76
2022/01/13 00:51:37;;;;;;;82.75;18.27;;;7.70;99.90;;;;;;5060719;28;20051;-76
2022/01/13 00:54:04;;;;;;;78.32;16.45;;;8.30;99.90;;;;;;5058616;28;20419;-76
2022/01/13 00:56:32;;;;;;;78.32;18.63;;;7.80;99.90;;;;;;5057051;28;20090;-76
2022/01/13 00:59:01;;;;;;;62.65;13.68;;;7.80;99.90;;;;;;5052546;28;20457;-76
2022/01/13 01:01:27;;;;;;;64.47;15.68;;;8.00;99.90;;;;;;5071238;28;20051;-75
2022/01/13 01:03:53;;;;;;;71.93;16.17;;;8.00;99.90;;;;;;5055115;28;20044;-76
2022/01/13 01:06:20;;;;;;;72.07;15.57;;;8.10;99.90;;;;;;5039152;28;20060;-77
2022/01/13 01:08:46;;;;;;;78.70;15.43;;;8.20;99.90;;;;;;5043663;28;20386;-76
2022/01/13 01:11:12;;;;;;;92.38;17.92;;;7.70;99.90;;;;;;5052037;28;20053;-76
2022/01/13 01:13:39;;;;;;;79.72;14.68;;;7.80;99.90;;;;;;5024563;28;20052;-76
2022/01/13 01:16:08;;;;;;;84.82;18.35;;;8.20;99.90;;;;;;5060013;28;20052;-76
2022/01/13 01:18:48;;;;;;;102.85;19.20;;;8.20;99.90;;;;;;5060405;28;20088;-76
2022/01/13 01:26:36;;;;;;;101.13;19.27;;;7.80;99.90;;;;;;5053256;28;20444;-77
2022/01/13 01:29:29;;;;;;;96.28;17.83;;;7.80;99.90;;;;;;5064457;28;20053;-75
2022/01/13 01:31:56;;;;;;;69.95;14.48;;;7.70;99.90;;;;;;5061857;28;20136;-76
2022/01/13 01:35:14;;;;;;;74.82;15.13;;;7.90;99.90;;;;;;5041706;28;20217;-75
2022/01/13 01:37:17;;;;;;;65.55;14.18;;;8.50;99.90;;;;;;5051019;28;20396;-76
2022/01/13 01:39:45;;;;;;;85.95;17.30;;;7.90;99.90;;;;;;5038294;28;20049;-75
2022/01/13 01:42:11;;;;;;;85.53;17.55;;;7.70;99.90;;;;;;5048136;28;20052;-76
2022/01/13 01:44:41;;;;;;;78.07;16.02;;;7.70;99.90;;;;;;5034736;28;20084;-75
2022/01/13 01:47:10;;;;;;;66.03;14.48;;;7.70;99.90;;;;;;5048287;28;20048;-76
2022/01/13 01:49:41;;;;;;;83.68;15.85;;;7.80;99.90;;;;;;5060443;28;20048;-76
2022/01/13 01:52:08;;;;;;;58.13;12.57;;;7.80;99.90;;;;;;5026692;28;20037;-76
2022/01/13 01:54:35;;;;;;;78.38;16.92;;;7.80;99.90;;;;;;5057712;28;20050;-76
2022/01/13 01:57:01;;;;;;;66.05;14.77;;;7.70;99.90;;;;;;5065205;28;20044;-76
2022/01/13 01:59:30;;;;;;;60.72;13.73;;;7.80;99.90;;;;;;5066288;28;20048;-76
2022/01/13 02:01:57;;;;;;;64.43;16.00;;;7.80;99.90;;;;;;5051316;28;20059;-75
2022/01/13 02:04:25;;;;;;;60.50;16.20;;;8.00;99.90;;;;;;5024815;28;20439;-76
2022/01/13 02:06:55;;;;;;;70.22;16.70;;;7.80;99.90;;;;;;5065976;28;20118;-76
2022/01/13 02:09:22;;;;;;;76.72;17.55;;;7.80;99.90;;;;;;5053784;28;20115;-76
2022/01/13 02:11:53;;;;;;;81.53;17.30;;;8.30;99.90;;;;;;5058085;28;20493;-76
2022/01/13 02:17:09;;;;;;;78.07;17.95;;;7.70;99.90;;;;;;5061888;28;20057;-76
2022/01/13 02:19:38;;;;;;;82.88;19.27;;;7.80;99.90;;;;;;5053497;28;20036;-76
2022/01/13 02:22:05;;;;;;;67.30;16.67;;;8.20;99.90;;;;;;5034765;28;20059;-76
2022/01/13 02:24:33;;;;;;;79.57;16.77;;;7.90;99.90;;;;;;5022321;28;20385;-76
2022/01/13 02:26:59;;;;;;;76.90;16.60;;;7.70;99.90;;;;;;5058024;28;20114;-76
2022/01/13 02:29:25;;;;;;;93.50;18.63;;;7.70;99.90;;;;;;5032923;28;20037;-75
2022/01/13 02:31:52;;;;;;;82.45;17.60;;;7.70;99.90;;;;;;5058499;28;20402;-75
2022/01/13 02:34:18;;;;;;;97.50;18.38;;;7.70;99.90;;;;;;5058632;28;20048;-76
2022/01/13 02:36:46;;;;;;;77.95;16.83;;;7.60;99.90;;;;;;5041007;28;20040;-76
2022/01/13 02:39:12;;;;;;;65.93;14.65;;;7.60;99.90;;;;;;5053472;28;20508;-75
2022/01/13 02:41:38;;;;;;;81.45;15.85;;;7.60;99.90;;;;;;5051686;28;20076;-75
2022/01/13 02:44:11;;;;;;;61.15;13.23;;;7.60;99.90;;;;;;5062394;28;20045;-75
2022/01/13 02:49:08;;;;;;;93.95;17.95;;;7.50;99.90;;;;;;5025589;28;20504;-76
2022/01/13 02:51:35;;;;;;;87.28;17.45;;;7.60;99.90;;;;;;5065369;28;20485;-76
2022/01/13 02:54:02;;;;;;;92.55;16.73;;;7.50;99.90;;;;;;5054484;28;20041;-76
2022/01/13 02:56:28;;;;;;;86.07;17.17;;;7.50;99.90;;;;;;5054851;28;20539;-76
2022/01/13 02:58:54;;;;;;;92.88;17.30;;;7.60;99.90;;;;;;5055500;28;20048;-76
2022/01/13 03:01:20;;;;;;;95.00;18.20;;;7.50;99.90;;;;;;5046599;28;20133;-75
2022/01/13 03:03:46;;;;;;;88.80;17.67;;;8.00;99.90;;;;;;5046047;28;20164;-76
2022/01/13 03:06:15;;;;;;;79.78;15.70;;;7.60;99.90;;;;;;5061603;28;20051;-76
2022/01/13 03:08:46;;;;;;;89.35;18.20;;;7.70;99.90;;;;;;5064076;28;20442;-75
2022/01/13 03:11:13;;;;;;;90.20;19.08;;;7.20;99.90;;;;;;5054390;28;20540;-76
2022/01/13 03:13:39;;;;;;;68.18;14.93;;;7.70;99.90;;;;;;5033778;28;20085;-75
2022/01/13 03:16:11;;;;;;;87.50;18.30;;;7.60;99.90;;;;;;5059626;28;20048;-77
2022/01/13 03:18:37;;;;;;;66.47;15.00;;;7.60;99.90;;;;;;5048910;28;20121;-75
2022/01/13 03:21:04;;;;;;;75.82;17.50;;;7.70;99.90;;;;;;5032992;28;20753;-78
2022/01/13 03:23:30;;;;;;;75.65;17.25;;;7.70;99.90;;;;;;5034823;28;20087;-75
2022/01/13 03:25:56;;;;;;;79.03;17.45;;;7.70;99.90;;;;;;4998084;28;20079;-78
2022/01/13 03:28:29;;;;;;;76.00;15.38;;;7.60;99.90;;;;;;5021404;28;20485;-76
2022/01/13 03:30:57;;;;;;;89.65;18.15;;;7.70;99.90;;;;;;5016582;28;20128;-76
2022/01/13 03:33:23;;;;;;;75.47;16.98;;;8.60;99.90;;;;;;5015386;28;20045;-76
2022/01/13 03:35:49;;;;;;;62.53;14.15;;;7.70;99.90;;;;;;5038604;28;20486;-76
2022/01/13 03:38:15;;;;;;;79.80;16.45;;;7.70;99.90;;;;;;5001660;28;20227;-76
2022/01/13 03:40:41;;;;;;;65.05;14.98;;;7.60;99.90;;;;;;5031016;28;20136;-76
2022/01/13 03:43:07;;;;;;;62.10;12.15;;;7.70;99.90;;;;;;5030712;28;20052;-77
2022/01/13 03:45:33;;;;;;;76.38;16.30;;;8.70;99.90;;;;;;5031579;28;20049;-76
2022/01/13 03:48:00;;;;;;;87.35;17.58;;;7.70;99.90;;;;;;5018680;28;20041;-76
2022/01/13 03:50:26;;;;;;;88.85;16.17;;;7.70;99.90;;;;;;5034262;28;20053;-77
2022/01/13 03:52:59;;;;;;;79.78;15.40;;;7.70;99.90;;;;;;5030339;28;20045;-76
2022/01/13 03:55:38;;;;;;;61.13;13.38;;;7.70;99.90;;;;;;5016156;28;20045;-75
2022/01/13 03:58:13;;;;;;;96.57;17.02;;;7.70;99.90;;;;;;5031058;28;20045;-76
2022/01/13 04:01:16;;;;;;;76.63;15.18;;;7.80;99.90;;;;;;5030616;28;20136;-76
2022/01/13 04:03:42;;;;;;;71.43;15.25;;;7.70;99.90;;;;;;5037982;28;20060;-76
2022/01/13 04:06:11;;;;;;;81.25;15.43;;;7.90;99.90;;;;;;4999241;28;20053;-76
2022/01/13 04:08:37;;;;;;;92.15;17.45;;;7.70;99.90;;;;;;5007263;28;20386;-76
2022/01/13 04:11:06;;;;;;;75.25;13.48;;;7.60;99.90;;;;;;5029050;28;20038;-76
2022/01/13 04:16:11;;;;;;;74.72;15.75;;;7.60;99.90;;;;;;5029659;28;20053;-75
2022/01/13 04:18:37;;;;;;;79.78;15.50;;;7.90;99.90;;;;;;5013290;28;20045;-75
2022/01/13 04:21:03;;;;;;;74.95;15.98;;;7.50;99.90;;;;;;5024126;28;20042;-76
2022/01/13 04:23:29;;;;;;;80.22;15.88;;;7.50;99.90;;;;;;5033018;28;20124;-76
2022/01/13 04:25:55;;;;;;;74.72;15.50;;;7.50;99.90;;;;;;5010670;28;20045;-76
2022/01/13 04:28:27;;;;;;;88.18;16.23;;;7.40;99.90;;;;;;5046064;28;20529;-76
2022/01/13 04:31:00;;;;;;;92.93;16.08;;;7.50;99.90;;;;;;5032716;28;20094;-76
2022/01/13 04:33:28;;;;;;;126.55;20.67;;;7.50;99.90;;;;;;5034656;28;20081;-76
2022/01/13 04:35:53;;;;;;;103.47;17.52;;;7.80;99.90;;;;;;5018869;28;20049;-75
2022/01/13 04:38:19;;;;;;;114.50;16.52;;;7.50;99.90;;;;;;5017336;28;20110;-76
2022/01/13 04:40:48;;;;;;;117.40;17.05;;;7.50;99.90;;;;;;5020581;28;20124;-76
2022/01/13 04:43:14;;;;;;;114.57;17.00;;;7.40;99.90;;;;;;5019294;28;20118;-76
2022/01/13 04:45:41;;;;;;;128.77;19.60;;;7.40;99.90;;;;;;5039608;28;20386;-76
2022/01/13 04:48:07;;;;;;;118.75;16.90;;;7.40;99.90;;;;;;5041340;28;20048;-76
2022/01/13 04:50:33;;;;;;;106.57;15.27;;;7.50;99.90;;;;;;5034552;28;20124;-76
2022/01/13 04:52:58;;;;;;;138.05;20.40;;;7.70;99.90;;;;;;5035069;28;20079;-76
2022/01/13 04:55:26;;;;;;;146.43;20.90;;;7.30;99.90;;;;;;5001473;28;20085;-75
2022/01/13 04:57:53;;;;;;;157.52;21.70;;;7.40;99.90;;;;;;5037677;28;20045;-76
2022/01/13 05:00:20;;;;;;;148.38;21.17;;;7.40;99.90;;;;;;5025825;28;20131;-75
2022/01/13 05:02:46;;;;;;;153.90;20.00;;;7.40;99.90;;;;;;5020240;28;20065;-75
2022/01/13 05:05:12;;;;;;;164.52;20.95;;;7.40;99.90;;;;;;5018995;28;20057;-75
2022/01/13 05:07:38;;;;;;;157.75;21.63;;;7.40;99.90;;;;;;5034060;28;20041;-75
2022/01/13 05:10:05;;;;;;;147.75;19.75;;;7.40;99.90;;;;;;5037837;28;20093;-75
2022/01/13 05:12:36;;;;;;;168.55;23.38;;;7.40;99.90;;;;;;5034757;28;20061;-75
2022/01/13 05:15:04;;;;;;;146.27;20.60;;;7.70;99.90;;;;;;5034367;28;20045;-75
2022/01/13 05:18:06;;;;;;;153.52;20.98;;;7.40;99.90;;;;;;5036919;28;20057;-75
2022/01/13 05:20:46;;;;;;;100.57;17.70;;;8.00;99.90;;;;;;5043866;28;20464;-75
2022/01/13 05:23:13;;;;;;;102.10;17.52;;;7.40;99.90;;;;;;5021358;28;20056;-76
2022/01/13 05:25:40;;;;;;;108.35;17.63;;;7.40;99.90;;;;;;5028984;28;20507;-75
2022/01/13 05:28:06;;;;;;;100.97;17.98;;;7.60;99.90;;;;;;5017383;28;20049;-75
2022/01/13 05:30:32;;;;;;;109.07;18.55;;;7.40;99.90;;;;;;5020091;28;20052;-75
2022/01/13 05:32:58;;;;;;;109.57;17.10;;;7.30;99.90;;;;;;5040820;28;20057;-75
2022/01/13 05:35:25;;;;;;;109.57;17.33;;;7.70;99.90;;;;;;5033496;28;20046;-76
2022/01/13 05:37:51;;;;;;;106.97;17.88;;;7.30;99.90;;;;;;5040503;28;20049;-75
2022/01/13 05:40:17;;;;;;;121.82;17.92;;;7.80;99.90;;;;;;5036130;28;20170;-75
2022/01/13 05:42:43;;;;;;;146.43;19.90;;;7.50;99.90;;;;;;5035578;28;20486;-76
2022/01/13 05:45:15;;;;;;;179.43;21.58;;;7.30;99.90;;;;;;5040653;28;20045;-75
2022/01/13 05:47:42;;;;;;;105.72;15.63;;;7.30;99.90;;;;;;5040380;28;20190;-75
2022/01/13 05:50:10;;;;;;;138.68;19.30;;;7.30;99.90;;;;;;5018262;28;20128;-76
2022/01/13 05:52:36;;;;;;;95.32;15.15;;;7.30;99.90;;;;;;5032147;28;20052;-75
2022/01/13 05:55:03;;;;;;;154.77;20.83;;;7.20;99.90;;;;;;5022414;28;20055;-76
2022/01/13 05:57:30;;;;;;;107.88;16.90;;;7.20;99.90;;;;;;5032337;28;20053;-75
2022/01/13 05:59:55;;;;;;;91.68;14.35;;;7.30;99.90;;;;;;5016284;28;20048;-75
2022/01/13 06:02:21;;;;;;;109.22;16.35;;;7.40;99.90;;;;;;5000317;28;20054;-75
2022/01/13 06:04:47;;;;;;;165.88;20.85;;;7.30;99.90;;;;;;5050054;28;20053;-76
2022/01/13 06:07:13;;;;;;;159.13;20.42;;;7.30;99.90;;;;;;5000061;28;20099;-75
2022/01/13 06:09:38;;;;;;;138.65;20.00;;;7.30;99.90;;;;;;4999957;28;20072;-75
2022/01/13 06:12:05;;;;;;;117.32;16.60;;;7.30;99.90;;;;;;5034881;28;20115;-76
2022/01/13 06:14:31;;;;;;;125.35;19.10;;;7.30;99.90;;;;;;5038568;28;20049;-75
2022/01/13 06:16:57;;;;;;;129.35;19.60;;;7.30;99.90;;;;;;5016939;28;20070;-75
2022/01/13 06:19:22;;;;;;;156.25;21.30;;;7.30;99.90;;;;;;5021919;28;20392;-75
2022/01/13 06:21:49;;;;;;;148.45;20.23;;;7.30;99.90;;;;;;5038435;28;20053;-75
2022/01/13 06:24:14;;;;;;;120.25;19.98;;;7.50;99.90;;;;;;5035064;28;20076;-76
2022/01/13 06:26:40;;;;;;;152.65;22.13;;;7.30;99.90;;;;;;5032603;28;20084;-75
2022/01/13 06:29:06;;;;;;;140.57;19.35;;;7.30;99.90;;;;;;5032974;28;20045;-76
2022/01/13 06:31:32;;;;;;;86.53;14.95;;;8.10;99.90;;;;;;5038642;28;20068;-75
2022/01/13 06:33:57;;;;;;;122.88;17.75;;;7.40;99.90;;;;;;5027667;28;20533;-76
2022/01/13 06:36:31;;;;;;;155.15;21.05;;;7.40;99.90;;;;;;5028096;28;20099;-75
2022/01/13 06:38:57;;;;;;;156.02;21.10;;;7.70;99.90;;;;;;5014326;28;20127;-75
2022/01/13 06:41:23;;;;;;;182.70;20.17;;;8.40;99.90;;;;;;5007190;28;20049;-75
2022/01/13 06:43:49;;;;;;;201.43;23.15;;;7.50;99.90;;;;;;5038915;28;20430;-76
2022/01/13 06:46:15;;;;;;;166.98;22.63;;;8.50;99.90;;;;;;5029791;28;20438;-76
2022/01/13 06:48:42;;;;;;;188.57;21.80;;;7.50;99.90;;;;;;5034569;28;20049;-75
2022/01/13 06:51:08;;;;;;;148.52;19.75;;;7.60;99.90;;;;;;5035707;28;20053;-75
2022/01/13 06:53:34;;;;;;;158.68;21.98;;;7.60;99.90;;;;;;5038010;28;20055;-76
2022/01/13 06:56:00;;;;;;;150.95;22.13;;;7.60;99.90;;;;;;5037833;28;20053;-75
2022/01/13 06:58:29;;;;;;;139.73;21.63;;;7.60;99.90;;;;;;5032897;28;20041;-75
2022/01/13 07:00:54;;;;;;;170.65;21.73;;;7.70;99.90;;;;;;5038363;28;20048;-75
2022/01/13 07:03:21;;;;;;;154.60;20.88;;;7.70;99.90;;;;;;5035770;28;20065;-75
2022/01/13 07:05:47;;;;;;;155.80;21.88;;;7.70;99.90;;;;;;5007918;28;20148;-75
2022/01/13 07:08:13;;;;;;;160.70;21.88;;;7.70;99.90;;;;;;4994643;28;20133;-75
2022/01/13 07:10:40;;;;;;;145.60;20.85;;;7.80;99.90;;;;;;5042747;28;20120;-75
2022/01/13 07:13:05;;;;;;;145.05;19.95;;;7.80;99.90;;;;;;5033190;28;20041;-75
2022/01/13 07:15:32;;;;;;;139.88;20.50;;;7.80;99.90;;;;;;5016756;28;20038;-75
2022/01/13 07:17:59;;;;;;;165.30;22.27;;;7.80;99.90;;;;;;5018437;28;20728;-75
2022/01/13 07:20:27;;;;;;;151.98;21.65;;;8.00;99.90;;;;;;5037642;28;20125;-75
2022/01/13 07:22:53;;;;;;;186.40;22.10;;;7.70;99.90;;;;;;5017977;28;20187;-75
2022/01/13 07:25:19;;;;;;;165.15;23.45;;;7.70;99.90;;;;;;5015059;28;20116;-75
2022/01/13 07:27:45;;;;;;;158.70;23.60;;;7.70;99.90;;;;;;5017253;28;20083;-76
2022/01/13 07:30:12;;;;;;;129.57;20.00;;;8.10;99.90;;;;;;5017563;28;20084;-75
2022/01/13 07:32:39;;;;;;;124.05;18.75;;;7.80;99.90;;;;;;5014564;28;20494;-75
2022/01/13 07:35:05;;;;;;;119.97;18.67;;;7.90;99.90;;;;;;4999918;28;20080;-75
2022/01/13 07:37:31;;;;;;;101.68;16.70;;;7.80;99.90;;;;;;5031263;28;20067;-76
2022/01/13 07:39:57;;;;;;;126.72;19.90;;;7.80;99.90;;;;;;5039086;28;20506;-75
2022/01/13 07:42:24;;;;;;;126.72;21.48;;;7.80;99.90;;;;;;5013983;28;20052;-75
2022/01/13 07:44:50;;;;;;;113.80;20.17;;;7.80;99.90;;;;;;5031956;28;20045;-76
2022/01/13 07:47:16;;;;;;;150.07;22.38;;;8.50;99.90;;;;;;5043270;28;20057;-76
2022/01/13 07:49:42;;;;;;;137.80;19.77;;;7.90;99.90;;;;;;5038217;28;20047;-76
2022/01/13 07:52:07;;;;;;;87.47;14.13;;;7.80;99.90;;;;;;4983285;28;20041;-75
2022/01/13 07:54:33;;;;;;;119.85;19.92;;;7.80;99.90;;;;;;5039405;28;20041;-75
2022/01/13 07:57:00;;;;;;;139.55;19.33;;;7.90;99.90;;;;;;5033241;28;20060;-75
2022/01/13 07:59:28;;;;;;;137.55;21.42;;;7.80;99.90;;;;;;5020637;28;20456;-75
2022/01/13 08:01:58;;;;;;;150.32;22.35;;;7.80;99.90;;;;;;5036781;28;20049;-76
2022/01/13 08:04:24;;;;;;;147.15;21.35;;;7.90;99.90;;;;;;5020419;28;20060;-75
2022/01/13 08:06:50;;;;;;;155.05;22.75;;;7.90;99.90;;;;;;5029983;28;20441;-76
2022/01/13 08:09:16;;;;;;;147.57;21.05;;;7.90;99.90;;;;;;5031410;28;20048;-73
2022/01/13 08:11:41;;;;;;;160.45;22.50;;;7.90;99.90;;;;;;5031340;28;20041;-79
2022/01/13 08:14:07;;;;;;;161.77;21.75;;;7.90;99.90;;;;;;5037025;28;20041;-77
2022/01/13 08:16:35;;;;;;;139.75;20.90;;;8.40;99.90;;;;;;5029204;28;20373;-76
2022/01/13 08:21:46;;;;;;;172.50;23.95;;;7.80;99.90;;;;;;5030039;28;20565;-77
2022/01/13 08:24:12;;;;;;;101.95;17.02;;;7.90;99.90;;;;;;5014197;28;20099;-76
2022/01/13 08:26:37;;;;;;;128.55;22.25;;;7.90;99.90;;;;;;5013532;28;20498;-76
2022/01/13 08:29:04;;;;;;;128.23;21.63;;;7.90;99.90;;;;;;5029780;28;20092;-76
2022/01/13 08:31:30;;;;;;;148.43;21.83;;;7.90;99.90;;;;;;5046879;28;20049;-76
2022/01/13 08:33:56;;;;;;;149.20;22.10;;;7.80;99.90;;;;;;5030090;28;20052;-77
2022/01/13 08:36:22;;;;;;;127.45;21.92;;;8.10;99.90;;;;;;5029869;28;20046;-76
2022/01/13 08:38:49;;;;;;;97.22;16.50;;;7.90;99.90;;;;;;5012956;28;20128;-76
2022/01/13 08:41:15;;;;;;;136.00;21.88;;;8.20;99.90;;;;;;5030120;28;20049;-75
2022/01/13 08:43:41;;;;;;;144.52;22.15;;;8.20;99.90;;;;;;4997281;28;20417;-76
2022/01/13 08:46:07;;;;;;;119.68;20.15;;;8.20;99.90;;;;;;5029673;28;20137;-75
2022/01/13 08:48:34;;;;;;;141.88;20.65;;;7.80;99.90;;;;;;5029780;28;20056;-75
2022/01/13 08:51:01;;;;;;;123.32;21.35;;;7.90;99.90;;;;;;5030105;28;20053;-76
2022/01/13 08:53:27;;;;;;;107.20;18.92;;;7.80;99.90;;;;;;5030789;28;20077;-76
2022/01/13 08:55:54;;;;;;;101.32;18.67;;;7.90;99.90;;;;;;5029817;28;20057;-76
2022/01/13 08:58:22;;;;;;;98.57;18.35;;;7.80;99.90;;;;;;5034520;28;20053;-76
2022/01/13 09:00:49;;;;;;;129.77;19.15;;;7.80;99.90;;;;;;5020837;28;20045;-76
2022/01/13 09:03:15;;;;;;;114.13;19.75;;;7.80;99.90;;;;;;5032660;28;20073;-76
2022/01/13 09:05:42;;;;;;;113.43;20.88;;;7.90;99.90;;;;;;5029828;28;20509;-76
2022/01/13 09:08:10;;;;;;;133.48;21.83;;;7.90;99.90;;;;;;5028190;28;20128;-75
2022/01/13 09:10:39;;;;;;;123.93;20.00;;;7.90;99.90;;;;;;5017481;28;20041;-76
2022/01/13 09:13:11;;;;;;;112.95;19.80;;;7.90;99.90;;;;;;5011492;28;20456;-76
2022/01/13 09:15:41;;;;;;;135.63;22.73;;;7.90;99.90;;;;;;5025282;28;20054;-76
2022/01/13 09:18:15;;;;;;;135.63;21.67;;;8.00;99.90;;;;;;5016273;28;20042;-76
2022/01/13 09:20:41;;;;;;;106.28;20.83;;;8.00;99.90;;;;;;5033447;28;20103;-76
2022/01/13 09:23:08;;;;;;;109.10;19.95;;;7.90;99.90;;;;;;5035774;28;20060;-76
2022/01/13 09:25:34;;;;;;;118.40;19.63;;;8.00;99.90;;;;;;5014827;28;20053;-75
2022/01/13 09:28:00;;;;;;;117.28;21.25;;;8.10;99.90;;;;;;5025914;28;20046;-76
2022/01/13 09:30:26;;;;;;;91.38;17.42;;;8.00;99.90;;;;;;5040923;28;20041;-76
2022/01/13 09:32:52;;;;;;;95.22;16.98;;;8.00;99.90;;;;;;5022158;28;20041;-75
2022/01/13 09:35:18;;;;;;;100.28;18.52;;;8.00;99.90;;;;;;5018238;28;20051;-76
2022/01/13 09:37:44;;;;;;;106.30;19.83;;;8.20;99.90;;;;;;5016192;28;20096;-74
2022/01/13 09:40:11;;;;;;;106.50;20.63;;;8.10;99.90;;;;;;5020545;28;20104;-75
2022/01/13 09:42:41;;;;;;;114.32;21.90;;;8.10;99.90;;;;;;5016942;28;20048;-75
2022/01/13 09:45:08;;;;;;;68.97;15.57;;;8.00;99.90;;;;;;5033061;28;20100;-75
2022/01/13 09:47:37;;;;;;;93.10;18.73;;;8.10;99.90;;;;;;5015916;28;20049;-75
2022/01/13 09:50:09;;;;;;;110.60;21.50;;;8.10;99.90;;;;;;5015985;28;20037;-75
2022/01/13 09:52:36;;;;;;;112.70;22.00;;;8.10;99.90;;;;;;5016734;28;20077;-75
2022/01/13 09:55:02;;;;;;;108.60;21.65;;;8.10;99.90;;;;;;5034535;28;20045;-75
2022/01/13 09:57:28;;;;;;;96.30;20.63;;;8.10;99.90;;;;;;5032276;28;20049;-75
2022/01/13 09:59:57;;;;;;;108.32;20.92;;;8.20;99.90;;;;;;5032667;28;20083;-75
2022/01/13 10:02:24;;;;;;;82.88;16.15;;;8.10;99.90;;;;;;5032289;28;20072;-75
2022/01/13 10:04:53;;;;;;;71.55;15.10;;;8.20;99.90;;;;;;5030641;28;20207;-74
2022/01/13 10:07:37;;;;;;;78.53;17.60;;;8.20;99.90;;;;;;5031641;28;20053;-71
2022/01/13 10:10:08;;;;;;;58.28;16.08;;;8.40;99.90;;;;;;5016096;28;20061;-73
2022/01/13 10:12:38;;;;;;;;;;;8.30;99.90;;;;;;5016589;28;20119;-74
2022/01/13 10:17:50;;;;;;;81.45;17.15;;;8.30;99.90;;;;;;5031834;28;20132;-73
2022/01/13 10:20:19;;;;;;;78.57;18.10;;;8.30;99.90;;;;;;5032402;28;20452;-75
2022/01/13 10:22:45;;;;;;;61.53;14.98;;;8.80;99.90;;;;;;5031679;28;20053;-74
2022/01/13 10:25:26;;;;;;;90.68;20.52;;;8.40;99.90;;;;;;5031679;28;20046;-74
2022/01/13 10:27:51;;;;;;;88.35;19.80;;;8.40;99.90;;;;;;5015237;28;20052;-74
2022/01/13 10:30:18;;;;;;;85.13;20.15;;;8.40;99.90;;;;;;5029349;28;20041;-74
2022/01/13 10:32:45;;;;;;;83.25;18.05;;;8.40;99.90;;;;;;5032980;28;20431;-73
2022/01/13 10:35:16;;;;;;;74.07;18.35;;;8.50;99.90;;;;;;5031660;28;20041;-73
2022/01/13 10:37:48;;;;;;;83.55;18.83;;;8.40;99.90;;;;;;5031468;28;20041;-74
2022/01/13 10:40:27;;;;;;;83.55;19.48;;;9.00;99.90;;;;;;5037169;28;20045;-74
2022/01/13 10:45:22;;;;;;;82.32;18.70;;;8.50;99.90;;;;;;5015461;28;20065;-75
2022/01/13 10:47:52;;;;;;;76.18;20.25;;;8.50;99.90;;;;;;5016508;28;20096;-74
2022/01/13 10:50:20;;;;;;;71.20;16.42;;;8.40;99.90;;;;;;5032317;28;20073;-73
2022/01/13 10:52:46;;;;;;;72.82;18.10;;;8.50;99.90;;;;;;4999018;28;20103;-74
2022/01/13 10:55:15;;;;;;;85.78;20.80;;;8.50;99.90;;;;;;5015404;28;20506;-73
2022/01/13 10:57:43;;;;;;;82.60;19.50;;;8.60;99.90;;;;;;5025922;28;20063;-81
2022/01/13 11:00:18;;;;;;;78.47;19.20;;;8.60;99.90;;;;;;5031228;28;20045;-78
2022/01/13 11:02:58;;;;;;;75.78;19.40;;;8.60;99.90;;;;;;5030220;28;20064;-83
2022/01/13 11:05:24;;;;;;;95.88;21.45;;;8.60;99.90;;;;;;5033087;28;20121;-78
2022/01/13 11:07:50;;;;;;;87.18;18.48;;;8.60;99.90;;;;;;5032501;28;20045;-78
2022/01/13 11:10:16;;;;;;;81.53;19.67;;;8.50;99.90;;;;;;5031262;28;20711;-78
2022/01/13 11:12:44;;;;;;;85.80;20.42;;;8.50;99.90;;;;;;5014245;28;20049;-78
2022/01/13 11:15:15;;;;;;;63.45;16.23;;;8.50;99.90;;;;;;4999109;28;20061;-77
2022/01/13 11:17:44;;;;;;;88.03;20.05;;;9.00;99.90;;;;;;5035101;28;20087;-77
2022/01/13 11:20:12;;;;;;;81.47;19.83;;;8.60;99.90;;;;;;4995109;28;20081;-75
2022/01/13 11:22:41;;;;;;;68.32;16.15;;;8.60;99.90;;;;;;5025285;28;20038;-73
2022/01/13 11:25:09;;;;;;;88.22;21.67;;;8.50;99.90;;;;;;5014891;28;20045;-74
2022/01/13 11:27:36;;;;;;;75.65;19.17;;;8.60;99.90;;;;;;5036122;28;20485;-78
2022/01/13 11:30:06;;;;;;;74.90;19.45;;;9.00;99.90;;;;;;5024110;28;20095;-75
2022/01/13 11:32:32;;;;;;;77.88;18.65;;;8.50;99.90;;;;;;5018673;28;20081;-78
2022/01/13 11:34:59;;;;;;;60.05;15.98;;;8.50;99.90;;;;;;5042333;28;20045;-78
2022/01/13 11:37:30;;;;;;;63.05;18.15;;;8.90;99.90;;;;;;5030749;28;20052;-77
2022/01/13 11:39:56;;;;;;;72.97;19.08;;;8.60;99.90;;;;;;5013277;28;20068;-78
2022/01/13 11:42:22;;;;;;;73.85;19.52;;;8.60;99.90;;;;;;4997858;28;20053;-78
2022/01/13 11:45:11;;;;;;;79.20;19.15;;;8.60;99.90;;;;;;5029971;28;20045;-78
2022/01/13 11:47:37;;;;;;;75.40;19.05;;;8.60;99.90;;;;;;5030232;28;20045;-78
2022/01/13 11:50:22;;;;;;;78.05;20.20;;;8.60;99.90;;;;;;5020120;28;20041;-78
2022/01/13 11:52:52;;;;;;;78.25;19.55;;;8.60;99.90;;;;;;5010248;28;20088;-78
2022/01/13 11:55:25;;;;;;;77.10;18.90;;;8.60;99.90;;;;;;5025804;28;20049;-78
2022/01/13 11:57:52;;;;;;;77.07;21.45;;;8.70;99.90;;;;;;5034028;28;20118;-78
2022/01/13 12:00:22;;;;;;;61.30;18.58;;;8.70;99.90;;;;;;5024813;28;20041;-73
2022/01/13 12:02:48;;;;;;;72.20;19.63;;;8.60;99.90;;;;;;5030564;28;20127;-71
2022/01/13 12:05:17;;;;;;;74.55;18.42;;;8.70;99.90;;;;;;4996915;28;20196;-72
2022/01/13 12:07:53;;;;;;;76.30;20.00;;;8.70;99.90;;;;;;5030445;28;20410;-72
2022/01/13 12:10:41;;;;;;;61.63;16.70;;;8.70;99.90;;;;;;5030471;28;20124;-72
2022/01/13 12:13:29;;;;;;;75.82;20.77;;;8.70;99.90;;;;;;5029767;28;20080;-73
2022/01/13 12:15:56;;;;;;;72.05;18.77;;;8.70;99.90;;;;;;5029710;28;20047;-72
2022/01/13 12:18:48;;;;;;;67.82;17.55;;;8.70;99.90;;;;;;5030387;28;20397;-73
2022/01/13 12:21:24;;;;;;;;;;;8.70;99.90;;;;;;5027905;28;20413;-73
2022/01/13 12:23:49;;;;;;;69.10;18.20;;;8.70;99.90;;;;;;5029568;28;19925;-72
2022/01/13 12:26:33;;;;;;;60.15;15.07;;;8.70;99.90;;;;;;5013232;28;20479;-72
2022/01/13 12:29:18;;;;;;;69.68;17.15;;;8.70;99.90;;;;;;5015832;28;20140;-79
2022/01/13 12:31:49;;;;;;;57.80;17.95;;;8.70;99.90;;;;;;5008363;28;20129;-81
2022/01/13 12:34:27;;;;;;;55.90;16.75;;;8.80;99.90;;;;;;5037742;28;20049;-76
2022/01/13 12:36:53;;;;;;;58.90;16.05;;;8.80;99.90;;;;;;5029914;28;20084;-72
2022/01/13 12:39:21;;;;;;;64.15;18.55;;;8.80;99.90;;;;;;5042488;28;20045;-71
2022/01/13 12:42:02;;;;;;;60.05;16.98;;;8.80;99.90;;;;;;5013124;28;20415;-71
2022/01/13 12:47:15;;;;;;;58.03;16.58;;;8.90;99.90;;;;;;5033241;28;20067;-72
2022/01/13 12:49:41;;;;;;;55.70;17.42;;;8.90;99.90;;;;;;5034036;28;20048;-72
2022/01/13 12:52:07;;;;;;;61.72;19.95;;;8.90;99.90;;;;;;5032976;28;20045;-72
2022/01/13 12:54:34;;;;;;;62.80;19.88;;;8.90;99.90;;;;;;5017549;28;20053;-72
2022/01/13 12:57:06;;;;;;;57.45;17.38;;;8.90;99.90;;;;;;5016752;28;20107;-72
2022/01/13 12:59:33;;;;;;;64.38;18.95;;;8.90;99.90;;;;;;5033863;28;20482;-72
2022/01/13 13:02:02;;;;;;;53.55;17.88;;;9.00;99.90;;;;;;5000327;28;20045;-72
2022/01/13 13:04:30;;;;;;;62.35;20.48;;;9.00;99.90;;;;;;5018967;28;20050;-72
2022/01/13 13:06:56;;;;;;;52.05;16.98;;;9.00;99.90;;;;;;5047912;28;20060;-72
2022/01/13 13:09:25;;;;;;;41.58;16.65;;;9.00;99.90;;;;;;5033504;28;20107;-75